METAR AND TAF INFORMATION
METAR FOR KJGG
ADDS - METARS form results

(1533 UTC 17 February 2019)
Data provider http://aviationweather.gov/metar/data/
 
METAR text: KJGG 171515Z AUTO 00000KT 10SM CLR 05/03 A3010 RMK AO1
Conditions at: KJGG (WILLIAMSBURG , VA, US) observed 1515 UTC 17 February 2019
Temperature: 5.0°C (41°F)
Dewpoint: 3.0°C (37°F) [RH = 87%]
Pressure (altimeter): 30.10 inches Hg (1019.4 mb)
Winds: calm
Visibility: 10 or more miles (16+ km)
Ceiling: at least 12,000 feet AGL
Clouds: sky clear below 12,000 feet AGL
Weather: automated observation with no human augmentation;
there may or may not be significant weather present at this time

METAR text: KJGG 171455Z AUTO 00000KT 10SM CLR 04/02 A3012 RMK AO1
Conditions at: KJGG (WILLIAMSBURG , VA, US) observed 1455 UTC 17 February 2019
Temperature: 4.0°C (39°F)
Dewpoint: 2.0°C (36°F) [RH = 87%]
Pressure (altimeter): 30.12 inches Hg (1020.1 mb)
Winds: calm
Visibility: 10 or more miles (16+ km)
Ceiling: at least 12,000 feet AGL
Clouds: sky clear below 12,000 feet AGL
Weather: automated observation with no human augmentation;
there may or may not be significant weather present at this time

METAR text: KJGG 171435Z AUTO 00000KT 10SM CLR 03/02 A3011 RMK AO1
Conditions at: KJGG (WILLIAMSBURG , VA, US) observed 1435 UTC 17 February 2019
Temperature: 3.0°C (37°F)
Dewpoint: 2.0°C (36°F) [RH = 93%]
Pressure (altimeter): 30.11 inches Hg (1019.7 mb)
Winds: calm
Visibility: 10 or more miles (16+ km)
Ceiling: at least 12,000 feet AGL
Clouds: sky clear below 12,000 feet AGL
Weather: automated observation with no human augmentation;
there may or may not be significant weather present at this time

 AIRPORT MAP

Esri Leaflet Quickstart
 RUNWAY INFORMATION
Runway 13 Runway length 3204 ft Runway width 60 ft
Runway elevation 48 ft Runway displaced threshold 0 ft Runway heading 121
Runway 31 Runway length 3204 ft Runway width 60 ft
Runway elevation 22 ft Runway displaced threshold 0 ft Runway heading 301

 AIRPORT FREQUENCIES
Type A/D Name NORFOLK AP Frequency 119.45 MHZ
Type AWOS Name AWOS 3 Frequency 120.625 MHZ
Type UNIC Name CTAF/UNICO Frequency 122.8 MHZ

 AIRPORT NEAR NAVIGATION AIDS



Powered by Virtual Airlines Manager [v2.6.2]